METAR Data
IDs: Format: Raw Decoded Include TAF

Data at: 1828 UTC 21 Sep 2018

KOCH 211756Z AUTO 16009KT 10SM 31/24 A2998 RMK AO2 LTG DSNT SE SLP153 60001 T03110239 10317 20244 58013 $
KOCH 211656Z AUTO 15008KT 10SM 31/25 A3001 RMK AO2 SLP161 T03060250 $
KOCH 211556Z AUTO 13008KT 10SM 29/26 A3002 RMK AO2 RAE24 SLP164 P0000 T02890256 $
KOCH 211456Z AUTO 13004KT 10SM -RA 27/25 A3002 RMK AO2 RAB48 SLP166 P0001 60001 T02670250 51006 $
KOCH 211356Z AUTO 14004KT 10SM 26/25 A3002 RMK AO2 SLP166 T02610250 $
KOCH 211256Z AUTO 14004KT 10SM 25/24 A3001 RMK AO2 SLP163 T02500244 $
KOCH 211156Z AUTO 12004KT 10SM 24/24 A3000 RMK AO2 RAE28 SLP159 P0000 60000 T02440239 10250 20233 53009 $
KOCH 211056Z AUTO 12005KT 10SM -RA 24/24 A2999 RMK AO2 RAB43 SLP155 P0000 T02440239 $
KOCH 210956Z AUTO 13003KT 10SM 24/24 A2998 RMK AO2 SLP153 T02440239 $
KOCH 210856Z AUTO 12004KT 10SM 24/24 A2997 RMK AO2 SLP150 60000 T02440239 58004 $
KOCH 210756Z AUTO 11003KT 10SM 24/23 A2998 RMK AO2 RAB32E44 SLP153 P0000 T02390233 $
KOCH 210656Z AUTO 12004KT 10SM 24/23 A2998 RMK AO2 SLP153 T02390233 $
KOCH 210556Z AUTO 00000KT 10SM 23/23 A2999 RMK AO2 SLP154 60000 T02330228 10294 20228 403220211 58003 $
KOCH 210456Z AUTO 00000KT 10SM 23/22 A2999 RMK AO2 SLP157 T02280222 $
KOCH 210356Z AUTO 13003KT 10SM 23/23 A3000 RMK AO2 SLP157 T02330228 $
KOCH 210256Z AUTO 00000KT 10SM 23/22 A2999 RMK AO2 RAE09 SLP157 P0000 60000 T02330222 51025 $
KOCH 210156Z AUTO 21004KT 10SM -RA 24/23 A2998 RMK AO2 TSB01E24B36E51RAB20 SLP153 P0000 T02390228 $
KOCH 210142Z AUTO 25010KT 10SM VCTS -RA 25/24 A2998 RMK AO2 LTG DSNT SW TSB01E24B36RAB20 P0000 $
KOCH 210130Z AUTO 21010KT 10SM -RA 26/24 A2998 RMK AO2 LTG DSNT SW AND W TSB01E24RAB20 P0000 $
KOCH 210107Z AUTO 16004KT 9SM VCTS 28/24 A2996 RMK AO2 LTG DSNT S-W TSB01 $
KOCH 210056Z AUTO 15005KT 10SM 28/24 A2995 RMK AO2 LTG DSNT S-W SLP141 T02830239 $
KOCH 202356Z AUTO 13005KT 10SM 29/23 A2992 RMK AO2 LTG DSNT S SLP132 T02940233 10322 20294 58008 $
KOCH 202256Z AUTO 15005KT 10SM 31/23 A2993 RMK AO2 SLP135 T03060233 $
KOCH 202156Z AUTO VRB05KT 10SM 31/23 A2993 RMK AO2 SLP137 T03110233 $
KOCH 202056Z AUTO 12008KT 10SM 31/23 A2994 RMK AO2 SLP139 T03110233 56021 $
KOCH 201856Z AUTO 17008KT 10SM 32/22 A2998 RMK AO2 SLP152 T03170222 $
KOCH 201756Z AUTO 20007KT 10SM 32/23 A3000 RMK AO2 SLP160 T03170233 10317 20211 58006 $
KOCH 201656Z AUTO 00000KT 10SM 31/24 A3003 RMK AO2 SLP168 T03060239 $
KOCH 201556Z AUTO 22007KT 10SM 29/24 A3003 RMK AO2 SLP170 T02890239 $
KOCH 201456Z AUTO 16004KT 10SM 27/24 A3002 RMK AO2 SLP167 T02720244 53012 $
KOCH 201356Z AUTO 17003KT 10SM 25/23 A3001 RMK AO2 SLP162 T02500233 $
KOCH 201256Z AUTO 00000KT 7SM 22/22 A2999 RMK AO2 SLP157 T02220217 $
KOCH 201156Z AUTO 00000KT 4SM BR 22/21 A2998 RMK AO2 SLP153 T02170211 10239 20211 53007 $
KOCH 201056Z AUTO 13003KT 8SM 22/22 A2997 RMK AO2 SLP150 T02220217 $
KOCH 200956Z AUTO 00000KT 10SM 23/22 A2996 RMK AO2 SLP147 T02280217 $
KOCH 200856Z AUTO 13004KT 10SM 23/22 A2996 RMK AO2 SLP146 T02280217 56003 $
KOCH 200756Z AUTO 11004KT 10SM 23/22 A2997 RMK AO2 SLP147 T02330217 $
KOCH 200656Z AUTO 00000KT 10SM 23/22 A2996 RMK AO2 SLP147 T02280222 $